Details From CYYD - Smithers
To CYPR - Prince Rupert
Flight Number -
Tags Generated
Created
Modified
Stats Distance 118 nm / 219 km
Max Altitude 0 ft / 0 m
Waypoints 2
Social Downloads 0
Likes 0
Share VATSIM

Download

Looking for another format? Having issues loading an existing format? Contact us
Advertisement - Login to hide

Notes

Generated

Route

CYYD CYPR

ID Type Via Altitude Latitude Longitude Leg Dist Tot Dist Heading (true) Name
O CYYD APT - 0 ft / 0 m 54.83157˚ -127.18444˚ - 0 nm - -
O CYPR APT - 0 ft / 0 m 54.29334˚ -130.45165˚ 118 nm 118 nm 255° / 253° -

Altitude Profile

Advertisement - Login to hide

CYYD

Details ICAO CYYD (YYD)
Name SMITHERS
Region Canada
Timezone America/Vancouver (UTC-8.0)
Stats Elevation 1,712 ft / 522 m (AMSL)
Location 54.824812° -127.182587°
Runways 1
Magnetic Variation 18.245° E

METAR

CYYD 170438Z AUTO VRB02KT 9SM SCT004 BKN007 BKN019 OVC048 M01/M01 A2960 RMK SLP047

Decode

TAF

TAF AMD CYYD 170427Z 1704/1706 VRB03KT P6SM SCT015 OVC025 TEMPO 1704/1706 2SM BR BKN002 OVC020 RMK NXT FCST WILL BE ISSUED AT 171345Z

Decode

Departure Runways

ID Width Length Bearing (true) Bearing (mag) Surface Threshold Offset Overrun Length
15 150 ft / 46 m 4,992 ft / 1,521 m 171.00° 152.76° Asphalt 0 ft / 0 m 0 ft / 0 m
33 150 ft / 46 m 4,992 ft / 1,521 m 351.01° 332.77° Asphalt 0 ft / 0 m 0 ft / 0 m

CYPR

Details ICAO CYPR (YPR)
Name Prince Rupert
Region Canada
Timezone America/Vancouver (UTC-8.0)
Stats Elevation 116 ft / 35 m (AMSL)
Location 54.286114° -130.444717°
Runways 1
Magnetic Variation 18.257° E

METAR

CYPR 170444Z AUTO 28013KT 240V300 6SM -RA BR BKN012 BKN018 OVC038 07/06 A2974 RMK SLP074

Decode

TAF

TAF AMD CYPR 170219Z 1702/1713 15010G20KT 6SM -SHRA OVC025 TEMPO 1702/1713 11/2SM -RA BR OVC015 BECMG 1702/1704 26015G25KT RMK FCST BASED ON AUTO OBS. NXT FCST BY 170700Z

Decode

Destination Runways

ID Width Length Bearing (true) Bearing (mag) Surface Threshold Offset Overrun Length
13 200 ft / 61 m 6,043 ft / 1,842 m 150.73° 132.47° Asphalt 0 ft / 0 m 0 ft / 0 m
31 200 ft / 61 m 6,043 ft / 1,842 m 330.74° 312.48° Asphalt 0 ft / 0 m 0 ft / 0 m

Approach Navaids

Runway Type Ident Frequency Range Bearing (true) Bearing (mag) Slope Elevation
13 Localiser IPR 109.70 MHz 18 nm / 33 km 152.00° 133.74° - 91 ft / 28 m (AMSL)
13 Glidescope IPR 109.70 MHz 10 nm / 19 km 152.00° 133.74° 3.00° 91 ft / 28 m (AMSL)